Time;durP1;ratioP1;P1;durP2;ratioP2;P2;SDS_P1;SDS_P2;PMS_P1;PMS_P2;Temp;Humidity;BMP_temperature;BMP_pressure;BME280_temperature;BME280_humidity;BME280_pressure;Samples;Min_cycle;Max_cycle;Signal;HPM_P1;HPM_P2
2023/05/07 00:02:11;;;;;;;5.32;2.90;;;;;;;19.48;58.25;99565.38;4495889;31;33482;-62
2023/05/07 00:04:39;;;;;;;4.43;3.00;;;;;;;19.38;58.40;99560.16;4488377;31;34234;-62
2023/05/07 00:07:06;;;;;;;5.68;3.22;;;;;;;19.03;59.38;99556.88;4494949;31;34115;-62
2023/05/07 00:09:34;;;;;;;4.10;2.03;;;;;;;19.24;58.59;99567.16;4490073;31;33960;-63
2023/05/07 00:12:02;;;;;;;3.22;2.08;;;;;;;19.32;58.29;99571.72;4487753;31;33507;-62
2023/05/07 00:14:29;;;;;;;3.50;1.75;;;;;;;19.31;58.24;99576.28;4496664;31;34208;-62
2023/05/07 00:16:57;;;;;;;3.10;2.05;;;;;;;19.11;58.80;99574.19;4482701;31;32899;-62
2023/05/07 00:19:25;;;;;;;4.28;2.62;;;;;;;18.75;59.81;99561.88;4491379;31;34035;-62
2023/05/07 00:21:55;;;;;;;4.95;2.70;;;;;;;18.98;59.03;99566.56;4488412;31;33954;-61
2023/05/07 00:24:23;;;;;;;4.62;3.30;;;;;;;19.13;58.75;99564.81;4483968;31;32590;-61
2023/05/07 00:26:52;;;;;;;3.80;2.50;;;;;;;19.17;58.82;99571.59;4491681;31;35399;-61
2023/05/07 00:29:19;;;;;;;4.50;2.87;;;;;;;19.20;58.60;99571.25;4489890;31;34128;-62
2023/05/07 00:31:49;;;;;;;4.37;2.62;;;;;;;19.25;58.32;99566.13;4488953;31;33774;-62
2023/05/07 00:34:17;;;;;;;3.92;2.35;;;;;;;19.24;58.26;99569.88;4491148;31;33492;-62
2023/05/07 00:36:44;;;;;;;4.93;2.12;;;;;;;19.13;58.69;99575.66;4487257;31;34740;-62
2023/05/07 00:39:12;;;;;;;3.72;2.53;;;;;;;18.90;58.95;99574.72;4483105;31;34053;-60
2023/05/07 00:41:39;;;;;;;3.92;2.53;;;;;;;19.02;58.61;99573.34;4491026;31;34879;-61
2023/05/07 00:44:07;;;;;;;4.10;2.03;;;;;;;18.88;58.81;99571.34;4487284;31;33100;-64
2023/05/07 00:46:35;;;;;;;3.10;1.58;;;;;;;19.09;57.96;99579.75;4494043;31;33679;-62
2023/05/07 00:49:02;;;;;;;2.50;1.37;;;;;;;19.11;57.74;99574.19;4482017;31;35120;-61
2023/05/07 00:51:30;;;;;;;4.43;2.00;;;;;;;19.08;57.78;99573.50;4494723;31;35238;-62
2023/05/07 00:53:58;;;;;;;3.55;1.77;;;;;;;19.08;57.80;99584.34;4493713;31;32693;-61
2023/05/07 00:56:26;;;;;;;3.65;2.10;;;;;;;18.92;57.84;99581.66;4484812;31;34472;-63
2023/05/07 00:58:53;;;;;;;3.58;2.08;;;;;;;18.90;58.04;99577.44;4494502;31;34092;-62
2023/05/07 01:01:21;;;;;;;3.12;1.75;;;;;;;18.99;57.79;99579.94;4493776;31;32706;-61
2023/05/07 01:03:49;;;;;;;3.53;2.05;;;;;;;19.09;57.43;99571.63;4483425;31;33248;-61
2023/05/07 01:06:17;;;;;;;4.37;1.95;;;;;;;19.14;57.29;99582.81;4495657;31;34155;-59
2023/05/07 01:08:45;;;;;;;3.10;2.42;;;;;;;19.11;57.43;99577.72;4487455;31;35496;-61
2023/05/07 01:11:14;;;;;;;3.20;2.22;;;;;;;19.16;57.15;99578.03;4488268;31;32665;-61
2023/05/07 01:13:41;;;;;;;6.20;2.87;;;;;;;19.16;57.19;99577.19;4483196;31;33137;-60
2023/05/07 01:16:09;;;;;;;4.35;2.17;;;;;;;18.94;57.88;99573.34;4481965;31;34588;-59
2023/05/07 01:18:37;;;;;;;4.35;2.05;;;;;;;19.00;57.65;99572.66;4484706;31;34977;-59
2023/05/07 01:21:06;;;;;;;3.10;1.80;;;;;;;19.04;57.59;99579.44;4493609;31;34422;-60
2023/05/07 01:23:35;;;;;;;5.03;2.45;;;;;;;18.95;57.65;99578.62;4485926;31;33276;-59
2023/05/07 01:26:03;;;;;;;3.10;1.83;;;;;;;18.99;57.32;99579.94;4494657;31;33983;-59
2023/05/07 01:28:30;;;;;;;2.72;1.75;;;;;;;18.98;57.15;99574.72;4484399;31;33840;-60
2023/05/07 01:31:01;;;;;;;2.83;1.77;;;;;;;18.91;56.72;99581.81;4497637;31;34265;-61
2023/05/07 01:33:32;;;;;;;4.87;2.45;;;;;;;18.89;56.86;99590.16;4491872;31;33103;-60
2023/05/07 01:36:02;;;;;;;2.80;2.15;;;;;;;18.88;56.72;99591.19;4480948;31;32887;-60
2023/05/07 01:38:29;;;;;;;5.32;1.98;;;;;;;18.77;56.82;99586.94;4484587;31;33304;-61
2023/05/07 01:40:57;;;;;;;4.12;2.30;;;;;;;18.72;56.81;99591.16;4488897;31;33541;-62
2023/05/07 01:43:25;;;;;;;4.57;2.03;;;;;;;18.74;56.76;99592.69;4481063;31;33105;-61
2023/05/07 01:45:53;;;;;;;4.07;2.25;;;;;;;18.76;56.82;99593.38;4492700;31;35038;-62
2023/05/07 01:48:21;;;;;;;3.60;2.08;;;;;;;18.74;56.72;99586.44;4484897;31;34021;-60
2023/05/07 01:50:48;;;;;;;3.95;2.60;;;;;;;18.72;56.73;99591.16;4493955;31;33527;-61
2023/05/07 01:53:16;;;;;;;3.53;1.98;;;;;;;18.58;57.42;99582.69;4483460;31;33301;-61
2023/05/07 01:55:45;;;;;;;6.28;2.28;;;;;;;18.53;57.83;99582.34;4494918;31;33694;-61
2023/05/07 01:58:12;;;;;;;4.43;2.53;;;;;;;18.45;58.33;99579.63;4497806;31;35146;-63
2023/05/07 02:00:40;;;;;;;3.30;1.45;;;;;;;18.40;58.24;99571.19;4492215;31;33281;-60
2023/05/07 02:03:08;;;;;;;7.18;2.95;;;;;;;18.43;58.09;99576.25;4496247;31;33251;-62
2023/05/07 02:05:36;;;;;;;2.17;1.95;;;;;;;18.47;58.04;99569.47;4487454;31;34476;-61
2023/05/07 02:08:05;;;;;;;3.08;1.73;;;;;;;18.47;57.78;99566.78;4485406;31;33722;-62
2023/05/07 02:10:32;;;;;;;2.00;1.48;;;;;;;18.41;57.28;99567.44;4488474;31;33693;-61
2023/05/07 02:13:01;;;;;;;3.08;2.08;;;;;;;18.42;56.83;99562.88;4497072;31;32933;-61
2023/05/07 02:15:29;;;;;;;2.12;1.75;;;;;;;18.39;57.05;99564.91;4486855;31;33584;-60
2023/05/07 02:18:00;;;;;;;3.33;2.33;;;;;;;18.43;56.68;99572.72;4483067;31;33745;-60
2023/05/07 02:20:28;;;;;;;2.17;1.58;;;;;;;18.49;56.44;99574.72;4490430;31;34625;-60
2023/05/07 02:22:55;;;;;;;4.07;2.05;;;;;;;18.19;57.46;99568.97;4497305;31;34326;-60
2023/05/07 02:25:23;;;;;;;3.65;2.35;;;;;;;18.05;58.09;99575.88;4489491;31;33754;-60
2023/05/07 02:27:51;;;;;;;3.33;2.03;;;;;;;18.10;57.98;99573.50;4491983;31;34095;-61
2023/05/07 02:30:21;;;;;;;4.12;2.15;;;;;;;17.84;58.74;99564.66;4495828;31;33659;-60
2023/05/07 02:32:50;;;;;;;1.50;1.10;;;;;;;18.01;58.08;99565.53;4499271;31;33385;-59
2023/05/07 02:35:17;;;;;;;5.15;3.08;;;;;;;18.10;57.98;99567.25;4491006;31;33882;-60
2023/05/07 02:37:45;;;;;;;3.83;1.85;;;;;;;17.99;58.05;99565.72;4487069;31;33828;-60
2023/05/07 02:40:13;;;;;;;4.03;2.45;;;;;;;18.06;57.44;99560.47;4487881;31;32291;-60
2023/05/07 02:42:41;;;;;;;4.50;3.22;;;;;;;18.01;57.65;99566.41;4488157;31;32913;-59
2023/05/07 02:45:09;;;;;;;2.78;2.08;;;;;;;17.99;57.78;99564.88;4493655;31;33962;-59
2023/05/07 02:47:38;;;;;;;7.05;4.10;;;;;;;17.91;57.66;99563.84;4485863;31;34002;-61
2023/05/07 02:50:07;;;;;;;6.10;3.10;;;;;;;17.98;57.38;99564.03;4490254;31;34842;-60
2023/05/07 02:52:34;;;;;;;4.97;3.12;;;;;;;18.02;56.74;99561.84;4493838;31;33096;-60
2023/05/07 02:55:02;;;;;;;5.03;3.08;;;;;;;17.32;59.29;99562.94;4493826;31;33762;-63
2023/05/07 02:57:30;;;;;;;4.82;2.90;;;;;;;17.35;59.62;99562.62;4491142;31;32947;-60
2023/05/07 02:59:58;;;;;;;5.03;3.10;;;;;;;17.36;59.83;99568.88;4497803;31;33936;-62
2023/05/07 03:02:28;;;;;;;6.62;3.55;;;;;;;17.47;59.37;99565.91;4484455;31;33316;-62
2023/05/07 03:04:55;;;;;;;8.85;3.25;;;;;;;17.47;59.44;99565.91;4493186;31;33600;-61
2023/05/07 03:07:23;;;;;;;5.03;3.00;;;;;;;17.35;59.78;99557.22;4493044;31;34024;-61
2023/05/07 03:09:51;;;;;;;4.72;3.17;;;;;;;17.49;59.57;99563.84;4485655;31;34939;-62
2023/05/07 03:12:18;;;;;;;5.10;2.95;;;;;;;17.64;59.16;99561.38;4488218;31;33147;-62
2023/05/07 03:14:45;;;;;;;9.43;3.58;;;;;;;17.74;58.90;99561.22;4487355;31;34670;-61
2023/05/07 03:17:13;;;;;;;5.68;2.72;;;;;;;17.84;58.80;99562.81;4493229;31;34708;-62
2023/05/07 03:19:40;;;;;;;7.40;2.58;;;;;;;17.83;58.70;99563.81;4493949;31;34463;-62
2023/05/07 03:22:08;;;;;;;6.57;2.80;;;;;;;17.75;58.51;99558.34;4483007;31;32979;-61
2023/05/07 03:24:36;;;;;;;7.90;3.08;;;;;;;17.66;58.59;99560.19;4495029;31;32265;-62
2023/05/07 03:27:03;;;;;;;6.18;3.30;;;;;;;17.74;58.39;99563.94;4489706;31;35176;-61
2023/05/07 03:29:31;;;;;;;4.70;2.67;;;;;;;17.80;58.34;99566.03;4482023;31;34688;-62
2023/05/07 03:31:58;;;;;;;3.40;2.45;;;;;;;17.87;58.08;99565.19;4487694;31;34392;-63
2023/05/07 03:34:26;;;;;;;4.10;2.65;;;;;;;17.78;58.25;99568.03;4491664;31;34885;-62
2023/05/07 03:36:53;;;;;;;3.22;2.30;;;;;;;17.82;58.08;99567.56;4484418;31;34507;-62
2023/05/07 03:39:22;;;;;;;4.47;3.15;;;;;;;17.96;57.62;99570.62;4495096;31;34040;-61
2023/05/07 03:41:50;;;;;;;2.85;1.77;;;;;;;17.88;57.40;99572.31;4485956;31;34563;-63
2023/05/07 03:44:17;;;;;;;4.05;1.85;;;;;;;17.84;57.21;99568.22;4489939;31;33564;-61
2023/05/07 03:46:45;;;;;;;2.97;1.62;;;;;;;17.44;57.88;99567.06;4490144;31;33933;-60
2023/05/07 03:49:13;;;;;;;20.55;2.72;;;;;;;17.53;57.65;99576.06;4492956;31;34071;-61
2023/05/07 03:51:41;;;;;;;4.72;2.65;;;;;;;17.46;57.94;99577.69;4481035;31;34459;-62
2023/05/07 03:54:09;;;;;;;8.32;4.15;;;;;;;17.40;58.33;99579.22;4481525;31;34794;-62
2023/05/07 03:56:36;;;;;;;5.32;3.10;;;;;;;17.46;58.50;99580.41;4495382;31;32829;-61
2023/05/07 03:59:04;;;;;;;4.72;3.00;;;;;;;17.13;59.37;99582.13;4486437;31;35002;-62
2023/05/07 04:01:31;;;;;;;7.45;3.55;;;;;;;17.45;58.82;99590.37;4493676;31;32083;-60
2023/05/07 04:03:59;;;;;;;6.93;3.55;;;;;;;17.53;58.78;99583.31;4492086;31;33727;-61
2023/05/07 04:06:28;;;;;;;13.25;5.25;;;;;;;17.60;58.74;99581.66;4489197;31;34753;-60
2023/05/07 04:08:55;;;;;;;5.75;2.75;;;;;;;17.49;59.13;99574.69;4493700;31;33473;-61
2023/05/07 04:11:23;;;;;;;3.42;2.30;;;;;;;17.67;58.72;99578.12;4495101;31;34204;-61
2023/05/07 04:13:50;;;;;;;5.78;3.33;;;;;;;17.75;58.63;99573.75;4484022;31;33786;-62
2023/05/07 04:16:19;;;;;;;5.87;3.95;;;;;;;17.76;58.73;99583.59;4493753;31;34047;-61
2023/05/07 04:18:47;;;;;;;6.05;3.55;;;;;;;17.82;58.66;99580.25;4499244;31;34799;-61
2023/05/07 04:21:19;;;;;;;7.05;3.75;;;;;;;17.67;59.09;99588.94;4498435;31;34828;-62
2023/05/07 04:23:48;;;;;;;7.35;3.78;;;;;;;17.74;59.20;99589.16;4499025;31;34964;-60
2023/05/07 04:26:15;;;;;;;4.95;3.15;;;;;;;17.61;59.63;99592.31;4499096;31;32879;-62
2023/05/07 04:28:43;;;;;;;4.25;3.12;;;;;;;17.77;59.42;99594.25;4497795;31;33797;-61
2023/05/07 04:31:11;;;;;;;3.95;2.50;;;;;;;18.02;58.87;99597.87;4490965;31;33587;-60
2023/05/07 04:33:39;;;;;;;5.85;2.80;;;;;;;17.88;59.37;99598.50;4495630;31;33759;-61
2023/05/07 04:36:07;;;;;;;5.20;3.40;;;;;;;17.91;59.27;99601.75;4496549;31;33677;-59
2023/05/07 04:38:35;;;;;;;6.85;3.65;;;;;;;18.07;59.30;99609.06;4498845;31;34519;-61
2023/05/07 04:41:05;;;;;;;5.50;4.00;;;;;;;18.37;59.07;99604.87;4496060;31;33254;-60
2023/05/07 04:43:33;;;;;;;7.55;4.32;;;;;;;18.43;59.44;99603.38;4485722;31;34119;-61
2023/05/07 04:46:01;;;;;;;10.13;4.75;;;;;;;18.52;59.72;99602.34;4494430;31;34175;-60
2023/05/07 04:48:29;;;;;;;3.60;2.47;;;;;;;18.87;58.86;99607.59;4497818;31;33102;-60
2023/05/07 04:50:57;;;;;;;7.15;4.72;;;;;;;19.15;58.64;99600.75;4500059;31;31662;-60
2023/05/07 04:53:25;;;;;;;7.22;5.28;;;;;;;19.31;58.18;99606.16;4483962;31;33681;-61
2023/05/07 04:55:59;;;;;;;8.45;5.00;;;;;;;19.42;57.61;99602.22;4495117;31;35299;-60
2023/05/07 04:58:31;;;;;;;6.12;4.07;;;;;;;19.49;57.37;99595.06;4492692;31;33910;-62
2023/05/07 05:01:00;;;;;;;5.68;3.97;;;;;;;19.49;57.67;99602.38;4489681;31;33185;-60
2023/05/07 05:03:28;;;;;;;8.73;3.80;;;;;;;19.32;58.68;99607.00;4491046;31;33597;-62
2023/05/07 05:05:59;;;;;;;6.30;3.95;;;;;;;19.64;57.72;99611.47;4496635;31;35038;-61
2023/05/07 05:08:26;;;;;;;6.22;4.25;;;;;;;19.72;56.91;99608.75;4495039;31;33759;-61
2023/05/07 05:10:54;;;;;;;5.80;3.75;;;;;;;19.70;56.40;99608.06;4491834;31;32045;-61
2023/05/07 05:13:22;;;;;;;4.82;2.92;;;;;;;19.55;56.30;99605.22;4488680;31;33926;-61
2023/05/07 05:15:49;;;;;;;5.60;2.97;;;;;;;19.62;55.96;99608.09;4491363;31;32790;-60
2023/05/07 05:18:17;;;;;;;6.75;2.90;;;;;;;19.70;56.21;99609.94;4486344;31;34708;-60
2023/05/07 05:20:45;;;;;;;5.60;3.65;;;;;;;19.85;56.18;99608.16;4490613;31;34371;-60
2023/05/07 05:23:13;;;;;;;5.35;3.05;;;;;;;19.93;56.42;99604.56;4496540;31;33913;-62
2023/05/07 05:25:40;;;;;;;12.98;4.85;;;;;;;20.09;56.32;99614.47;4489705;31;34058;-60
2023/05/07 05:28:08;;;;;;;9.82;4.22;;;;;;;20.33;55.75;99613.47;4483020;31;34794;-63
2023/05/07 05:30:36;;;;;;;7.87;3.78;;;;;;;20.20;55.71;99611.38;4498717;31;33349;-62
2023/05/07 05:33:03;;;;;;;6.75;4.28;;;;;;;20.08;56.35;99604.66;4485945;31;33715;-62
2023/05/07 05:35:31;;;;;;;5.93;3.87;;;;;;;20.10;56.86;99602.59;4493067;31;34392;-63
2023/05/07 05:38:01;;;;;;;5.82;3.58;;;;;;;19.94;57.54;99604.37;4492872;31;34674;-62
2023/05/07 05:40:29;;;;;;;5.32;3.53;;;;;;;20.20;57.34;99600.50;4485009;31;34183;-63
2023/05/07 05:42:56;;;;;;;7.00;4.50;;;;;;;20.37;57.13;99603.94;4484798;31;33806;-62
2023/05/07 05:45:24;;;;;;;8.48;3.50;;;;;;;20.31;57.71;99601.94;4496384;31;33853;-62
2023/05/07 05:47:52;;;;;;;8.45;3.60;;;;;;;20.16;58.67;99597.28;4485429;31;34580;-61
2023/05/07 05:50:20;;;;;;;5.97;3.47;;;;;;;20.45;58.17;99593.00;4495242;31;32932;-62
2023/05/07 05:52:47;;;;;;;8.88;3.70;;;;;;;20.63;57.28;99596.28;4494073;31;33717;-61
2023/05/07 05:55:16;;;;;;;6.37;3.40;;;;;;;21.13;55.19;99594.78;4490709;31;33771;-62
2023/05/07 05:57:43;;;;;;;8.27;3.65;;;;;;;21.20;54.57;99586.72;4494151;31;35235;-61
2023/05/07 06:00:11;;;;;;;4.57;3.42;;;;;;;21.26;54.09;99590.56;4496088;31;32064;-61
2023/05/07 06:02:44;;;;;;;5.62;3.47;;;;;;;21.26;53.69;99596.84;4487234;31;33651;-61
2023/05/07 06:05:13;;;;;;;3.75;2.78;;;;;;;21.43;53.60;99602.97;4489504;31;33927;-62
2023/05/07 06:07:41;;;;;;;5.28;2.30;;;;;;;21.14;53.75;99595.63;4497220;31;33702;-62
2023/05/07 06:10:09;;;;;;;8.35;3.15;;;;;;;21.50;53.02;99606.63;4495719;31;33296;-62
2023/05/07 06:12:37;;;;;;;5.22;3.00;;;;;;;21.49;53.42;99598.66;4490900;31;34985;-62
2023/05/07 06:15:06;;;;;;;5.20;3.00;;;;;;;21.52;53.06;99607.28;4493864;31;34039;-62
2023/05/07 06:17:33;;;;;;;5.05;3.17;;;;;;;21.62;52.57;99596.94;4490240;31;33746;-62
2023/05/07 06:20:02;;;;;;;4.62;2.90;;;;;;;21.94;51.48;99594.81;4495107;31;32057;-61
2023/05/07 06:22:29;;;;;;;3.50;2.08;;;;;;;22.07;51.68;99602.31;4497513;31;33107;-62
2023/05/07 06:24:56;;;;;;;4.15;2.53;;;;;;;21.96;52.22;99600.94;4484394;31;34025;-61
2023/05/07 06:27:25;;;;;;;5.28;2.67;;;;;;;22.29;50.99;99600.50;4500091;31;33819;-62
2023/05/07 06:29:53;;;;;;;4.32;2.25;;;;;;;22.31;51.94;99601.12;4489372;31;34340;-61
2023/05/07 06:32:20;;;;;;;3.42;1.92;;;;;;;22.39;50.80;99605.63;4486621;31;34867;-62
2023/05/07 06:34:48;;;;;;;4.82;2.33;;;;;;;22.70;49.90;99597.09;4495899;31;34321;-62
2023/05/07 06:37:16;;;;;;;4.32;2.58;;;;;;;22.64;48.32;99598.72;4489375;31;33924;-61
2023/05/07 06:39:45;;;;;;;3.85;2.25;;;;;;;22.74;48.29;99604.69;4491503;31;34391;-62
2023/05/07 06:42:12;;;;;;;4.95;2.55;;;;;;;22.88;48.89;99602.06;4497056;31;32304;-61
2023/05/07 06:44:40;;;;;;;4.37;2.50;;;;;;;22.85;48.66;99602.44;4494656;31;33819;-62
2023/05/07 06:47:08;;;;;;;2.90;1.65;;;;;;;22.84;48.97;99607.06;4495375;31;34919;-61
2023/05/07 06:49:38;;;;;;;4.35;2.53;;;;;;;23.05;48.98;99608.09;4495804;31;33134;-62
2023/05/07 06:52:05;;;;;;;5.72;2.30;;;;;;;22.97;48.41;99607.19;4485349;32;33782;-61
2023/05/07 06:54:33;;;;;;;4.87;2.65;;;;;;;22.56;49.26;99610.59;4490729;31;34186;-61
2023/05/07 06:57:00;;;;;;;4.70;2.67;;;;;;;22.71;48.75;99606.97;4500976;31;33822;-61
2023/05/07 06:59:28;;;;;;;5.10;3.28;;;;;;;22.89;48.50;99607.34;4488369;31;33258;-62
2023/05/07 07:01:56;;;;;;;3.97;2.15;;;;;;;22.91;48.21;99605.22;4490812;31;33521;-62
2023/05/07 07:04:25;;;;;;;4.87;2.80;;;;;;;22.91;48.01;99613.41;4487732;31;35016;-61
2023/05/07 07:06:54;;;;;;;5.45;2.85;;;;;;;22.88;48.54;99618.44;4496283;31;32600;-61
2023/05/07 07:09:21;;;;;;;3.95;1.98;;;;;;;22.98;49.45;99627.16;4493249;31;33603;-62
2023/05/07 07:11:50;;;;;;;6.68;4.00;;;;;;;23.10;49.74;99628.28;4496520;31;33761;-61
2023/05/07 07:14:18;;;;;;;5.53;2.70;;;;;;;23.07;49.44;99630.59;4494762;31;34924;-62
2023/05/07 07:16:46;;;;;;;5.20;2.90;;;;;;;22.91;50.28;99629.78;4489814;31;33611;-61
2023/05/07 07:19:15;;;;;;;4.12;2.40;;;;;;;22.97;50.32;99634.50;4491566;31;34630;-62
2023/05/07 07:21:42;;;;;;;6.62;3.58;;;;;;;22.87;50.07;99642.16;4497749;31;34720;-62
2023/05/07 07:24:11;;;;;;;3.42;2.15;;;;;;;22.79;50.16;99645.00;4487257;31;35030;-62
2023/05/07 07:26:39;;;;;;;4.80;3.42;;;;;;;22.70;50.29;99652.50;4490624;31;33706;-61
2023/05/07 07:29:07;;;;;;;5.62;2.87;;;;;;;22.68;50.96;99649.13;4492602;31;33391;-61
2023/05/07 07:31:35;;;;;;;9.82;4.37;;;;;;;22.76;51.10;99653.56;4491561;31;33909;-62
2023/05/07 07:34:03;;;;;;;7.00;5.03;;;;;;;22.62;52.26;99651.78;4494625;31;33794;-62
2023/05/07 07:36:30;;;;;;;7.75;4.25;;;;;;;22.68;52.27;99653.72;4494099;31;33735;-62
2023/05/07 07:39:13;;;;;;;7.15;4.90;;;;;;;22.61;52.28;99661.84;4497178;31;33032;-62
2023/05/07 07:41:41;;;;;;;16.67;4.80;;;;;;;22.50;52.13;99660.50;4496715;31;33968;-61
2023/05/07 07:44:09;;;;;;;7.90;5.03;;;;;;;22.55;52.31;99662.62;4493675;31;32831;-61
2023/05/07 07:46:37;;;;;;;7.82;5.32;;;;;;;22.64;52.16;99669.66;4498944;31;34995;-61
2023/05/07 07:49:04;;;;;;;10.95;6.65;;;;;;;22.21;53.19;99660.56;4497440;31;33309;-61
2023/05/07 07:51:32;;;;;;;9.32;5.37;;;;;;;22.38;53.29;99663.94;4494055;31;32369;-61
2023/05/07 07:54:02;;;;;;;12.98;7.35;;;;;;;22.19;54.81;99662.66;4489568;31;35188;-61
2023/05/07 07:56:32;;;;;;;9.35;6.85;;;;;;;22.32;54.87;99663.66;4496631;31;33647;-62
2023/05/07 07:59:01;;;;;;;9.90;7.32;;;;;;;22.34;54.53;99660.72;4495909;31;32157;-61
2023/05/07 08:01:32;;;;;;;8.07;5.85;;;;;;;21.94;55.89;99676.56;4495628;31;33625;-61
2023/05/07 08:04:02;;;;;;;10.85;5.97;;;;;;;22.06;55.17;99668.75;4494926;31;33857;-61
2023/05/07 08:06:32;;;;;;;8.48;6.20;;;;;;;22.27;54.06;99670.72;4495590;31;34757;-62
2023/05/07 08:08:59;;;;;;;7.75;5.28;;;;;;;22.18;54.33;99667.25;4488408;31;33063;-62
2023/05/07 08:11:27;;;;;;;9.05;6.47;;;;;;;22.20;54.29;99658.87;4495552;31;33798;-62
2023/05/07 08:13:56;;;;;;;7.62;4.87;;;;;;;22.37;54.18;99660.31;4493122;31;34018;-61
2023/05/07 08:16:23;;;;;;;10.32;6.45;;;;;;;22.31;53.83;99659.25;4486146;31;34655;-61
2023/05/07 08:18:52;;;;;;;7.15;3.97;;;;;;;22.31;53.80;99659.25;4487317;31;34559;-61
2023/05/07 08:21:20;;;;;;;8.32;4.97;;;;;;;22.35;53.51;99650.69;4484186;31;34562;-62
2023/05/07 08:23:47;;;;;;;6.28;4.40;;;;;;;21.98;54.72;99656.06;4491040;31;34087;-61
2023/05/07 08:26:15;;;;;;;8.02;4.47;;;;;;;21.94;54.21;99660.22;4488652;31;34668;-61
2023/05/07 08:28:43;;;;;;;7.65;5.20;;;;;;;22.24;53.98;99650.13;4483789;31;33214;-62
2023/05/07 08:31:10;;;;;;;9.40;4.72;;;;;;;22.47;53.41;99651.81;4491319;31;33750;-61
2023/05/07 08:33:38;;;;;;;9.25;6.50;;;;;;;22.46;53.04;99655.59;4491430;31;35281;-61
2023/05/07 08:36:06;;;;;;;9.05;4.57;;;;;;;22.37;53.31;99659.50;4484708;31;33678;-61
2023/05/07 08:38:34;;;;;;;8.32;4.60;;;;;;;22.36;53.57;99663.25;4488186;31;33401;-61
2023/05/07 08:41:02;;;;;;;9.82;6.05;;;;;;;22.35;53.70;99665.16;4492040;31;33959;-62
2023/05/07 08:43:32;;;;;;;6.68;3.78;;;;;;;22.09;54.37;99668.38;4495521;31;32658;-60
2023/05/07 08:46:02;;;;;;;8.38;5.03;;;;;;;22.13;54.70;99669.69;4495553;31;33479;-61
2023/05/07 08:48:31;;;;;;;12.00;5.10;;;;;;;21.98;54.88;99677.88;4494455;31;34004;-61
2023/05/07 08:50:59;;;;;;;9.23;4.35;;;;;;;21.56;55.69;99668.50;4487015;31;35228;-60
2023/05/07 08:53:27;;;;;;;8.52;4.65;;;;;;;21.97;55.21;99664.44;4495818;31;33816;-61
2023/05/07 08:55:55;;;;;;;8.25;4.70;;;;;;;22.05;54.55;99667.94;4498708;31;34554;-62
2023/05/07 08:58:23;;;;;;;6.53;4.32;;;;;;;22.00;54.66;99677.69;4497926;31;34443;-61
2023/05/07 09:00:51;;;;;;;6.43;3.83;;;;;;;21.99;54.21;99665.09;4496711;31;34472;-61
2023/05/07 09:03:19;;;;;;;4.78;3.03;;;;;;;22.55;53.00;99668.09;4500087;31;33795;-62
2023/05/07 09:05:47;;;;;;;10.35;4.40;;;;;;;22.10;54.59;99662.72;4491706;31;33706;-61
2023/05/07 09:08:16;;;;;;;10.52;5.68;;;;;;;21.97;53.81;99664.44;4491495;31;34615;-60
2023/05/07 09:10:44;;;;;;;5.65;3.15;;;;;;;22.09;53.44;99660.22;4492623;31;32702;-61
2023/05/07 09:13:14;;;;;;;5.93;3.85;;;;;;;22.61;52.64;99653.66;4488623;31;35031;-62
2023/05/07 09:15:42;;;;;;;7.07;3.37;;;;;;;22.46;51.98;99666.50;4495883;31;33461;-60
2023/05/07 09:18:10;;;;;;;5.32;3.28;;;;;;;22.90;50.05;99666.31;4488200;31;33322;-60
2023/05/07 09:20:39;;;;;;;8.35;4.70;;;;;;;22.63;51.31;99664.38;4489219;31;33749;-60
2023/05/07 09:23:07;;;;;;;6.37;4.28;;;;;;;22.82;50.27;99665.59;4492479;31;34056;-61
2023/05/07 09:25:36;;;;;;;8.43;4.28;;;;;;;23.06;51.06;99656.19;4495910;31;33520;-60
2023/05/07 09:28:06;;;;;;;6.97;4.22;;;;;;;23.45;48.60;99667.41;4490479;31;33277;-61
2023/05/07 09:30:35;;;;;;;6.57;3.87;;;;;;;23.67;48.48;99661.88;4492909;31;34063;-63
2023/05/07 09:33:03;;;;;;;6.30;3.15;;;;;;;23.76;48.94;99663.44;4488846;31;34060;-61
2023/05/07 09:35:32;;;;;;;6.75;4.70;;;;;;;23.86;48.80;99660.31;4497173;31;33296;-61
2023/05/07 09:38:01;;;;;;;7.03;4.10;;;;;;;23.91;48.04;99655.06;4498589;31;33102;-61
2023/05/07 09:40:31;;;;;;;6.82;3.37;;;;;;;23.90;47.43;99651.50;4485446;31;34971;-60
2023/05/07 09:43:11;;;;;;;6.68;3.90;;;;;;;24.19;47.40;99657.72;4489088;31;33140;-61
2023/05/07 09:45:40;;;;;;;5.50;3.33;;;;;;;23.49;48.19;99654.19;4493314;31;32591;-62
2023/05/07 09:48:09;;;;;;;7.12;3.87;;;;;;;24.01;46.16;99661.00;4488716;31;33287;-62
2023/05/07 09:50:49;;;;;;;9.45;4.15;;;;;;;24.02;45.59;99659.13;4481072;31;35038;-61
2023/05/07 09:53:18;;;;;;;7.55;3.22;;;;;;;24.28;45.36;99656.47;4485801;31;34037;-62
2023/05/07 09:55:46;;;;;;;6.97;4.00;;;;;;;24.03;46.93;99666.28;4491347;31;34917;-63
2023/05/07 09:58:14;;;;;;;8.13;5.70;;;;;;;23.94;47.00;99663.69;4482397;31;33327;-60
2023/05/07 10:00:43;;;;;;;7.93;4.47;;;;;;;23.54;49.14;99667.25;4493621;31;33792;-61
2023/05/07 10:03:12;;;;;;;9.85;4.70;;;;;;;23.64;48.25;99671.31;4489419;31;33978;-61
2023/05/07 10:05:40;;;;;;;7.20;4.32;;;;;;;23.06;49.34;99672.59;4494429;31;33215;-60
2023/05/07 10:08:09;;;;;;;6.85;4.40;;;;;;;23.62;48.30;99675.28;4488952;31;33175;-62
2023/05/07 10:10:37;;;;;;;10.18;4.93;;;;;;;23.66;48.25;99665.66;4486320;31;33958;-60
2023/05/07 10:13:10;;;;;;;7.47;4.62;;;;;;;23.07;49.64;99671.53;4492382;31;32675;-61
2023/05/07 10:15:39;;;;;;;8.05;5.40;;;;;;;23.27;49.39;99674.41;4491911;31;34876;-62
2023/05/07 10:18:07;;;;;;;7.07;4.03;;;;;;;23.06;49.08;99669.84;4490988;31;33336;-60
2023/05/07 10:20:36;;;;;;;7.40;4.57;;;;;;;23.06;49.73;99672.59;4485462;31;35084;-62
2023/05/07 10:23:05;;;;;;;9.57;4.55;;;;;;;23.17;48.81;99674.75;4487512;31;34270;-60
2023/05/07 10:25:34;;;;;;;7.82;4.40;;;;;;;23.18;48.27;99668.28;4482590;31;31836;-61
2023/05/07 10:28:07;;;;;;;7.22;3.92;;;;;;;23.25;48.25;99664.53;4483028;31;34428;-62
2023/05/07 10:31:01;;;;;;;7.60;4.43;;;;;;;23.34;48.29;99678.91;4487251;31;33726;-62
2023/05/07 10:33:31;;;;;;;6.87;4.57;;;;;;;23.04;49.41;99677.38;4491098;31;34137;-62
2023/05/07 10:36:01;;;;;;;6.90;3.75;;;;;;;23.19;49.34;99680.87;4487280;31;32054;-60
2023/05/07 10:38:29;;;;;;;5.70;3.25;;;;;;;23.41;48.63;99668.84;4496925;31;33859;-62
2023/05/07 10:40:58;;;;;;;5.93;3.92;;;;;;;23.41;46.80;99665.28;4491924;31;33918;-61
2023/05/07 10:43:41;;;;;;;6.20;3.12;;;;;;;23.80;45.83;99661.97;4496337;31;35246;-60
2023/05/07 10:46:19;;;;;;;4.20;2.47;;;;;;;23.41;46.04;99663.38;4494945;31;33702;-61
2023/05/07 10:49:00;;;;;;;6.65;2.58;;;;;;;23.70;45.32;99654.12;4489772;31;34517;-61
2023/05/07 10:51:31;;;;;;;5.35;2.30;;;;;;;23.07;46.42;99666.91;4487265;31;34453;-62
2023/05/07 10:54:12;;;;;;;6.70;3.58;;;;;;;23.67;45.75;99656.41;4491635;31;33727;-62
2023/05/07 10:56:42;;;;;;;5.53;2.87;;;;;;;23.58;45.41;99654.88;4491135;31;34420;-63
2023/05/07 10:59:20;;;;;;;5.50;4.00;;;;;;;23.82;45.67;99653.56;4490358;31;33493;-63
2023/05/07 11:02:06;;;;;;;6.07;3.72;;;;;;;23.86;46.56;99655.69;4491827;31;33779;-61
2023/05/07 11:04:34;;;;;;;4.53;2.40;;;;;;;23.40;45.77;99655.38;4493216;31;35549;-61
2023/05/07 11:07:29;;;;;;;3.55;2.17;;;;;;;23.86;42.93;99652.13;4493347;31;33791;-61
2023/05/07 11:10:01;;;;;;;5.32;2.70;;;;;;;23.89;42.01;99651.72;4498483;31;34571;-62
2023/05/07 11:12:46;;;;;;;4.10;2.80;;;;;;;24.74;39.66;99644.81;4491728;31;34591;-61
2023/05/07 11:15:17;;;;;;;7.28;3.10;;;;;;;25.18;39.28;99642.53;4488073;31;34111;-63
2023/05/07 11:17:56;;;;;;;4.35;1.87;;;;;;;25.11;41.96;99642.50;4488023;31;34448;-61
2023/05/07 11:21:00;;;;;;;4.25;2.72;;;;;;;25.14;36.75;99642.13;4486091;31;33159;-62
2023/05/07 11:23:35;;;;;;;3.22;2.42;;;;;;;24.73;38.02;99647.78;4441658;32;33515;-62
2023/05/07 11:26:06;;;;;;;3.65;2.20;;;;;;;24.82;37.52;99650.09;4486681;31;35060;-64
2023/05/07 11:28:39;;;;;;;4.57;2.47;;;;;;;25.32;36.43;99652.41;4492141;31;35060;-62
2023/05/07 11:31:07;;;;;;;5.75;2.78;;;;;;;25.38;36.07;99659.78;4492649;31;33166;-63
2023/05/07 11:33:35;;;;;;;5.78;2.60;;;;;;;25.24;35.87;99663.59;4490696;31;33886;-61
2023/05/07 11:36:05;;;;;;;3.20;2.12;;;;;;;25.17;37.04;99647.19;4499099;31;33870;-64
2023/05/07 11:38:38;;;;;;;3.12;1.92;;;;;;;25.17;37.11;99654.53;4498615;31;33748;-65
2023/05/07 11:41:07;;;;;;;3.08;1.73;;;;;;;24.79;38.52;99655.97;4498230;31;33448;-62
2023/05/07 11:43:35;;;;;;;3.55;2.25;;;;;;;25.39;36.97;99655.12;4495300;31;35316;-62